Time;durP1;ratioP1;P1;durP2;ratioP2;P2;SDS_P1;SDS_P2;PMS_P1;PMS_P2;Temp;Humidity;BMP_temperature;BMP_pressure;BME280_temperature;BME280_humidity;BME280_pressure;Samples;Min_cycle;Max_cycle;Signal;HPM_P1;HPM_P2
2022/05/06 00:01:46;;;;;;;10.80;6.70;;;8.50;99.90;;;;;;5037484;28;20520;-81
2022/05/06 00:04:11;;;;;;;10.13;7.30;;;8.40;99.90;;;;;;5055178;28;20645;-81
2022/05/06 00:06:37;;;;;;;12.00;7.10;;;8.40;99.90;;;;;;5054926;28;20450;-81
2022/05/06 00:09:04;;;;;;;10.33;6.63;;;8.40;99.90;;;;;;5055298;28;20230;-81
2022/05/06 00:11:30;;;;;;;8.80;6.83;;;8.30;99.90;;;;;;5055163;28;20418;-82
2022/05/06 00:13:55;;;;;;;11.73;7.50;;;8.30;99.90;;;;;;5055149;28;20425;-81
2022/05/06 00:16:22;;;;;;;13.13;8.13;;;8.30;99.90;;;;;;5055101;28;20496;-81
2022/05/06 00:18:48;;;;;;;10.40;6.90;;;8.30;99.90;;;;;;5054977;28;20679;-82
2022/05/06 00:21:14;;;;;;;9.37;7.07;;;8.20;99.90;;;;;;5054684;28;20444;-81
2022/05/06 00:23:40;;;;;;;8.93;6.33;;;8.20;99.90;;;;;;5036940;28;20550;-81
2022/05/06 00:26:05;;;;;;;9.90;7.73;;;8.20;99.90;;;;;;5037168;28;20179;-81
2022/05/06 00:28:31;;;;;;;14.77;7.00;;;8.20;99.90;;;;;;5054950;28;20174;-81
2022/05/06 00:30:57;;;;;;;11.10;6.77;;;8.10;99.90;;;;;;5054826;28;20643;-81
2022/05/06 00:33:24;;;;;;;10.20;6.73;;;8.00;99.90;;;;;;5054747;28;20261;-81
2022/05/06 00:35:58;;;;;;;12.93;7.07;;;8.00;99.90;;;;;;5054436;28;20418;-81
2022/05/06 00:38:24;;;;;;;9.60;7.43;;;8.00;99.90;;;;;;5054518;28;20489;-81
2022/05/06 00:40:51;;;;;;;11.73;7.87;;;7.90;99.90;;;;;;5053868;28;20446;-81
2022/05/06 00:43:18;;;;;;;11.93;7.40;;;7.90;99.90;;;;;;5054361;28;20473;-81
2022/05/06 00:45:54;;;;;;;11.37;8.17;;;7.90;99.90;;;;;;5054551;28;20428;-81
2022/05/06 00:48:23;;;;;;;10.10;6.40;;;7.90;99.90;;;;;;5054590;28;20466;-81
2022/05/06 00:50:50;;;;;;;13.40;8.30;;;8.00;99.90;;;;;;5054081;28;20505;-81
2022/05/06 00:53:16;;;;;;;12.00;8.67;;;8.00;99.90;;;;;;5054329;28;20417;-81
2022/05/06 00:55:42;;;;;;;14.50;9.47;;;8.10;99.90;;;;;;5054341;28;20537;-81
2022/05/06 00:58:08;;;;;;;11.87;8.13;;;8.00;99.90;;;;;;5054320;28;20175;-81
2022/05/06 01:00:34;;;;;;;11.70;7.80;;;8.10;99.90;;;;;;5054295;28;20405;-81
2022/05/06 01:02:59;;;;;;;13.50;8.37;;;8.10;99.90;;;;;;5054171;28;20969;-82
2022/05/06 01:05:25;;;;;;;13.23;8.07;;;8.10;99.90;;;;;;5053956;28;20256;-81
2022/05/06 01:07:52;;;;;;;12.70;7.53;;;8.10;99.90;;;;;;5054154;28;20172;-81
2022/05/06 01:10:18;;;;;;;12.20;8.50;;;8.00;99.90;;;;;;5054044;28;20526;-82
2022/05/06 01:12:45;;;;;;;14.70;8.43;;;8.00;99.90;;;;;;5053881;28;20427;-81
2022/05/06 01:15:25;;;;;;;11.60;8.63;;;7.90;99.90;;;;;;5053986;28;20467;-82
2022/05/06 01:17:52;;;;;;;11.40;7.50;;;7.90;99.90;;;;;;5053910;28;20924;-81
2022/05/06 01:20:20;;;;;;;15.57;8.20;;;7.80;99.90;;;;;;5053531;28;20406;-81
2022/05/06 01:22:50;;;;;;;11.97;8.27;;;7.70;99.90;;;;;;5053806;28;20565;-80
2022/05/06 01:25:16;;;;;;;10.90;7.47;;;7.70;99.90;;;;;;5053767;28;20414;-81
2022/05/06 01:27:52;;;;;;;13.00;7.20;;;7.70;99.90;;;;;;5053657;28;20425;-81
2022/05/06 01:30:29;;;;;;;14.60;8.00;;;7.70;99.90;;;;;;5053647;28;20836;-81
2022/05/06 01:32:55;;;;;;;13.13;8.60;;;7.60;99.90;;;;;;5036940;28;20449;-81
2022/05/06 01:35:22;;;;;;;11.20;8.67;;;7.60;99.90;;;;;;5053198;28;20419;-81
2022/05/06 01:37:51;;;;;;;13.33;8.47;;;7.60;99.90;;;;;;5053570;28;20440;-81
2022/05/06 01:40:20;;;;;;;10.30;7.63;;;7.60;99.90;;;;;;5053544;28;20422;-81
2022/05/06 01:42:46;;;;;;;13.87;8.33;;;7.60;99.90;;;;;;5053435;28;20965;-81
2022/05/06 01:45:15;;;;;;;11.17;8.17;;;7.50;99.90;;;;;;5053325;28;20452;-81
2022/05/06 01:47:42;;;;;;;13.07;8.03;;;7.60;99.90;;;;;;5053381;28;20559;-82
2022/05/06 01:50:12;;;;;;;11.30;6.90;;;7.50;99.90;;;;;;5052948;28;20483;-81
2022/05/06 01:52:40;;;;;;;12.27;7.97;;;7.50;99.90;;;;;;5053270;28;20467;-81
2022/05/06 01:55:08;;;;;;;13.47;8.10;;;7.50;99.90;;;;;;5053301;28;20414;-82
2022/05/06 01:57:34;;;;;;;9.93;6.47;;;7.40;99.90;;;;;;5053285;28;20413;-81
2022/05/06 01:59:59;;;;;;;15.73;9.63;;;7.40;99.90;;;;;;5053090;28;20924;-81
2022/05/06 02:02:25;;;;;;;13.17;8.20;;;7.40;99.90;;;;;;5052996;28;20167;-81
2022/05/06 02:07:34;;;;;;;12.77;8.33;;;7.30;99.90;;;;;;5053142;28;20679;-82
2022/05/06 02:10:00;;;;;;;16.30;7.73;;;7.40;99.90;;;;;;5035228;28;20466;-81
2022/05/06 02:12:26;;;;;;;12.77;8.37;;;7.30;99.90;;;;;;5053048;28;20639;-81
2022/05/06 02:14:51;;;;;;;13.70;9.00;;;7.20;99.90;;;;;;5053014;28;20179;-81
2022/05/06 02:17:17;;;;;;;15.63;8.80;;;7.10;99.90;;;;;;5053035;28;20414;-82
2022/05/06 02:19:42;;;;;;;17.40;9.30;;;7.00;99.90;;;;;;5052575;28;20249;-81
2022/05/06 02:22:08;;;;;;;14.00;7.67;;;7.10;99.90;;;;;;5053025;28;20195;-81
2022/05/06 02:24:33;;;;;;;11.10;7.10;;;7.10;99.90;;;;;;5052845;28;20215;-81
2022/05/06 02:26:59;;;;;;;12.07;7.90;;;7.00;99.90;;;;;;5052950;28;20641;-81
2022/05/06 02:29:25;;;;;;;15.03;8.20;;;7.10;99.90;;;;;;5052944;28;20209;-80
2022/05/06 02:34:34;;;;;;;13.30;8.90;;;7.00;99.90;;;;;;5052560;28;20213;-81
2022/05/06 02:37:00;;;;;;;12.97;8.90;;;7.00;99.90;;;;;;5035050;28;20462;-81
2022/05/06 02:39:26;;;;;;;12.93;7.60;;;6.90;99.90;;;;;;5052736;28;20173;-80
2022/05/06 02:41:51;;;;;;;14.37;9.30;;;6.90;99.90;;;;;;5034814;28;20179;-81
2022/05/06 02:44:17;;;;;;;14.97;9.33;;;6.90;99.90;;;;;;5052187;28;20546;-81
2022/05/06 02:46:43;;;;;;;15.63;9.50;;;7.00;99.90;;;;;;5052747;28;20628;-81
2022/05/06 02:49:08;;;;;;;12.07;8.47;;;7.00;99.90;;;;;;5052720;28;20423;-81
2022/05/06 02:51:34;;;;;;;16.67;9.63;;;7.00;99.90;;;;;;5052314;28;20677;-81
2022/05/06 02:53:59;;;;;;;14.80;9.30;;;7.00;99.90;;;;;;5052655;28;20175;-81
2022/05/06 02:56:25;;;;;;;14.30;9.50;;;7.00;99.90;;;;;;5052681;28;20189;-81
2022/05/06 02:58:51;;;;;;;14.60;8.43;;;7.00;99.90;;;;;;5052618;28;20627;-81
2022/05/06 03:01:16;;;;;;;17.70;9.73;;;7.10;99.90;;;;;;5052516;28;20634;-81
2022/05/06 03:03:42;;;;;;;15.60;10.23;;;7.20;99.90;;;;;;5054648;28;20234;-81
2022/05/06 03:06:08;;;;;;;13.83;8.77;;;7.20;99.90;;;;;;5056118;28;20177;-81
2022/05/06 03:08:33;;;;;;;13.97;8.73;;;7.20;99.90;;;;;;5056415;28;20170;-81
2022/05/06 03:10:59;;;;;;;13.20;8.77;;;7.20;99.90;;;;;;5056421;28;20209;-81
2022/05/06 03:13:25;;;;;;;18.43;10.13;;;7.20;99.90;;;;;;5056210;28;20171;-81
2022/05/06 03:15:50;;;;;;;13.50;9.10;;;7.30;99.90;;;;;;5056229;28;20982;-81
2022/05/06 03:18:16;;;;;;;13.33;8.80;;;7.20;99.90;;;;;;5056249;28;20162;-81
2022/05/06 03:20:44;;;;;;;12.80;9.53;;;7.30;99.90;;;;;;5055774;28;20171;-81
2022/05/06 03:23:09;;;;;;;13.50;8.80;;;7.30;99.90;;;;;;5056082;28;20952;-81
2022/05/06 03:25:35;;;;;;;15.80;9.10;;;7.20;99.90;;;;;;5056092;28;20551;-81
2022/05/06 03:28:07;;;;;;;15.30;9.20;;;7.20;99.90;;;;;;5056092;28;20187;-82
2022/05/06 03:30:39;;;;;;;12.60;8.70;;;7.20;99.90;;;;;;5056036;28;20418;-81
2022/05/06 03:33:10;;;;;;;13.10;9.87;;;7.10;99.90;;;;;;5056029;28;20506;-82
2022/05/06 03:35:37;;;;;;;12.30;7.67;;;7.00;99.90;;;;;;5055547;28;20466;-81
2022/05/06 03:38:04;;;;;;;15.47;8.60;;;6.90;99.90;;;;;;5055797;28;20416;-81
2022/05/06 03:40:30;;;;;;;14.70;10.00;;;6.90;99.90;;;;;;5055758;28;20756;-81
2022/05/06 03:42:55;;;;;;;12.10;8.13;;;6.90;99.90;;;;;;5055665;28;20454;-81
2022/05/06 03:45:21;;;;;;;14.07;8.70;;;6.80;99.90;;;;;;5055652;28;20303;-81
2022/05/06 03:47:46;;;;;;;14.53;7.87;;;6.80;99.90;;;;;;5055617;28;20509;-81
2022/05/06 03:52:56;;;;;;;13.60;9.23;;;6.80;99.90;;;;;;5055966;28;20182;-81
2022/05/06 03:55:22;;;;;;;15.40;9.17;;;6.80;99.90;;;;;;5055530;28;20413;-81
2022/05/06 03:57:47;;;;;;;11.07;7.03;;;6.80;99.90;;;;;;5055502;28;20177;-81
2022/05/06 04:00:15;;;;;;;10.83;7.57;;;6.80;99.90;;;;;;5055513;28;20173;-81
2022/05/06 04:02:41;;;;;;;12.70;8.60;;;6.70;99.90;;;;;;5055173;28;20209;-81
2022/05/06 04:05:07;;;;;;;14.67;9.20;;;6.80;99.90;;;;;;5055057;28;20433;-81
2022/05/06 04:07:33;;;;;;;13.80;8.87;;;6.70;99.90;;;;;;5037457;28;20420;-81
2022/05/06 04:09:58;;;;;;;13.10;8.87;;;6.70;99.90;;;;;;5055198;28;20424;-81
2022/05/06 04:12:24;;;;;;;14.67;8.50;;;6.70;99.90;;;;;;5055192;28;20168;-81
2022/05/06 04:14:50;;;;;;;11.83;7.43;;;6.80;99.90;;;;;;5053970;28;20169;-81
2022/05/06 04:17:16;;;;;;;15.43;8.20;;;6.80;99.90;;;;;;5055198;28;20182;-81
2022/05/06 04:23:28;;;;;;;18.13;8.83;;;6.90;99.90;;;;;;5054691;28;20408;-81
2022/05/06 04:25:16;;;;;;;13.60;9.67;;;7.20;99.90;;;;;;5055322;28;20464;-81
2022/05/06 04:27:44;;;;;;;14.10;8.07;;;7.30;99.90;;;;;;5054948;28;20499;-81
2022/05/06 04:30:11;;;;;;;12.33;8.57;;;7.20;99.90;;;;;;5054870;28;20174;-81
2022/05/06 04:32:37;;;;;;;13.87;8.10;;;7.30;99.90;;;;;;5054869;28;20420;-80
2022/05/06 04:35:05;;;;;;;13.17;8.43;;;7.30;99.90;;;;;;5036678;28;20417;-81
2022/05/06 04:37:35;;;;;;;12.73;8.33;;;7.30;99.90;;;;;;5054717;28;20849;-81
2022/05/06 04:40:00;;;;;;;15.07;8.60;;;7.20;99.90;;;;;;5054569;28;20825;-81
2022/05/06 04:42:26;;;;;;;14.00;9.57;;;7.20;99.90;;;;;;5054583;28;20499;-80
2022/05/06 04:44:52;;;;;;;15.53;9.87;;;7.30;99.90;;;;;;5054466;28;20261;-80
2022/05/06 04:47:17;;;;;;;12.53;9.70;;;7.40;99.90;;;;;;5054609;28;20425;-80
2022/05/06 04:49:43;;;;;;;11.20;7.70;;;7.40;99.90;;;;;;5054126;28;20174;-80
2022/05/06 04:52:08;;;;;;;13.33;9.13;;;7.40;99.90;;;;;;5054415;28;20174;-81
2022/05/06 04:54:34;;;;;;;13.37;8.70;;;7.50;99.90;;;;;;5054393;28;20712;-81
2022/05/06 04:57:00;;;;;;;14.47;10.00;;;7.60;99.90;;;;;;5054298;28;20175;-81
2022/05/06 04:59:25;;;;;;;11.93;8.40;;;7.70;99.90;;;;;;5054401;28;20408;-81
2022/05/06 05:01:51;;;;;;;16.73;9.67;;;7.80;99.90;;;;;;5036332;28;20175;-81
2022/05/06 05:04:16;;;;;;;17.07;11.00;;;7.80;99.90;;;;;;5053741;28;20211;-81
2022/05/06 05:06:42;;;;;;;16.30;9.93;;;8.00;99.90;;;;;;5054194;28;20174;-81
2022/05/06 05:09:08;;;;;;;18.80;11.27;;;8.20;99.90;;;;;;5054105;28;20175;-80
2022/05/06 05:11:35;;;;;;;19.03;10.90;;;8.30;99.90;;;;;;5054098;28;20649;-81
2022/05/06 05:14:03;;;;;;;18.47;11.17;;;8.50;99.90;;;;;;5054059;28;20414;-81
2022/05/06 05:16:32;;;;;;;16.00;10.90;;;8.60;99.90;;;;;;5053892;28;20409;-81
2022/05/06 05:18:57;;;;;;;15.23;10.90;;;8.70;99.90;;;;;;5053580;28;20422;-80
2022/05/06 05:21:22;;;;;;;16.40;10.97;;;8.80;99.90;;;;;;5052510;28;20983;-81
2022/05/06 05:23:48;;;;;;;16.27;10.33;;;9.10;99.90;;;;;;5052406;28;20209;-81
2022/05/06 05:26:14;;;;;;;28.13;11.80;;;9.30;99.90;;;;;;5052115;28;20169;-82
2022/05/06 05:28:42;;;;;;;18.53;10.47;;;9.40;99.90;;;;;;5053007;28;20179;-81
2022/05/06 05:31:07;;;;;;;17.13;10.93;;;9.80;99.90;;;;;;5052910;28;20570;-80
2022/05/06 05:33:33;;;;;;;18.33;10.93;;;10.20;99.90;;;;;;5051715;28;20481;-81
2022/05/06 05:35:58;;;;;;;21.83;12.20;;;10.50;99.90;;;;;;5051215;28;20167;-82
2022/05/06 05:38:24;;;;;;;15.80;11.07;;;10.70;99.90;;;;;;5053347;28;20222;-81
2022/05/06 05:40:49;;;;;;;16.20;11.23;;;11.00;99.90;;;;;;5053446;28;20198;-81
2022/05/06 05:48:43;;;;;;;16.83;10.40;;;11.70;99.90;;;;;;5053479;28;20404;-81
2022/05/06 05:51:09;;;;;;;17.90;11.47;;;11.90;79.90;;;;;;5053039;28;20416;-81
2022/05/06 05:53:35;;;;;;;17.60;12.20;;;12.20;7.20;;;;;;5053423;28;20174;-81
2022/05/06 05:56:00;;;;;;;19.90;12.10;;;12.40;1.00;;;;;;5035358;28;20473;-81
2022/05/06 05:58:26;;;;;;;18.30;11.87;;;12.70;1.00;;;;;;5053255;28;20581;-79
2022/05/06 06:00:51;;;;;;;19.20;12.50;;;13.00;1.00;;;;;;5053275;28;20166;-79
2022/05/06 06:03:17;;;;;;;16.03;11.30;;;13.40;99.90;;;;;;5053219;28;20227;-79
2022/05/06 06:05:44;;;;;;;21.07;13.03;;;13.90;99.90;;;;;;5052875;28;20185;-82
2022/05/06 06:08:09;;;;;;;18.80;11.53;;;14.30;5.90;;;;;;5053113;28;20162;-81
2022/05/06 06:10:35;;;;;;;18.60;12.63;;;14.90;33.50;;;;;;5053086;28;20448;-79
2022/05/06 06:13:04;;;;;;;19.73;13.43;;;15.30;5.70;;;;;;5053074;28;20175;-79
2022/05/06 06:15:30;;;;;;;15.37;12.20;;;15.80;1.00;;;;;;5053039;28;20176;-82
2022/05/06 06:17:55;;;;;;;17.57;12.73;;;16.30;99.90;;;;;;5035019;28;20431;-81
2022/05/06 06:20:21;;;;;;;17.73;11.80;;;16.70;99.90;;;;;;5052580;28;21011;-82
2022/05/06 06:22:47;;;;;;;19.07;12.47;;;17.60;99.90;;;;;;5052816;28;20199;-82
2022/05/06 06:25:13;;;;;;;17.93;13.80;;;17.90;99.90;;;;;;5052877;28;20849;-82
2022/05/06 06:27:39;;;;;;;18.80;13.67;;;18.50;99.90;;;;;;5052940;28;20629;-79
2022/05/06 06:30:05;;;;;;;17.97;13.50;;;18.70;99.90;;;;;;5052758;28;20678;-80
2022/05/06 06:32:30;;;;;;;19.63;13.80;;;19.10;99.90;;;;;;5035062;28;20172;-80
2022/05/06 06:34:56;;;;;;;22.53;14.50;;;19.40;99.90;;;;;;5052606;28;20435;-80
2022/05/06 06:37:25;;;;;;;26.07;16.63;;;19.20;99.90;;;;;;5052755;28;20675;-80
2022/05/06 06:39:50;;;;;;;23.30;16.40;;;19.20;99.90;;;;;;5039053;28;20176;-80
2022/05/06 06:42:16;;;;;;;21.77;16.40;;;19.50;99.90;;;;;;5056876;28;20492;-80
2022/05/06 06:44:42;;;;;;;20.50;14.70;;;19.60;92.60;;;;;;5055464;28;20226;-80
2022/05/06 06:47:09;;;;;;;19.43;14.70;;;19.90;75.70;;;;;;5056939;28;20184;-80
2022/05/06 06:49:35;;;;;;;22.00;16.23;;;19.80;65.80;;;;;;5056430;28;20258;-80
2022/05/06 06:52:00;;;;;;;18.93;15.20;;;20.10;61.70;;;;;;5056852;28;20442;-80
2022/05/06 06:54:26;;;;;;;21.03;13.37;;;19.80;52.80;;;;;;5056769;28;20254;-80
2022/05/06 06:56:51;;;;;;;20.13;14.80;;;20.30;56.40;;;;;;5056722;28;20641;-80
2022/05/06 06:59:17;;;;;;;18.80;15.70;;;20.10;55.90;;;;;;5056711;28;20710;-80
2022/05/06 07:01:43;;;;;;;20.17;14.73;;;20.00;53.60;;;;;;5056667;28;20172;-80
2022/05/06 07:04:09;;;;;;;22.43;15.33;;;20.40;53.50;;;;;;5056198;28;20270;-80
2022/05/06 07:12:03;;;;;;;22.93;17.67;;;20.90;19.10;;;;;;5056602;28;20969;-81
2022/05/06 07:14:29;;;;;;;25.97;17.77;;;21.80;12.00;;;;;;5038507;28;20423;-82
2022/05/06 07:16:55;;;;;;;19.20;16.93;;;21.90;6.80;;;;;;5056357;28;20465;-80
2022/05/06 07:19:21;;;;;;;19.90;16.03;;;21.80;4.50;;;;;;5056045;28;20265;-82
2022/05/06 07:21:49;;;;;;;23.50;16.40;;;21.50;3.70;;;;;;5056338;28;20192;-80
2022/05/06 07:24:15;;;;;;;18.13;15.73;;;21.80;1.10;;;;;;5056113;28;20229;-80
2022/05/06 07:26:41;;;;;;;17.30;15.50;;;22.40;1.00;;;;;;5038277;28;20435;-80
2022/05/06 07:29:07;;;;;;;26.23;18.23;;;21.90;1.00;;;;;;5056125;28;20503;-82
2022/05/06 07:31:32;;;;;;;20.40;17.00;;;22.30;1.00;;;;;;5056129;28;20586;-82
2022/05/06 07:33:58;;;;;;;20.17;15.90;;;22.10;1.00;;;;;;5055791;28;20534;-82
2022/05/06 07:36:24;;;;;;;19.10;15.57;;;22.30;1.00;;;;;;5056016;28;20244;-83
2022/05/06 07:38:50;;;;;;;18.17;15.90;;;22.90;1.00;;;;;;5056100;28;20216;-83
2022/05/06 07:41:16;;;;;;;22.47;16.93;;;23.40;1.00;;;;;;5056029;28;20177;-83
2022/05/06 07:43:41;;;;;;;17.23;14.20;;;23.40;1.00;;;;;;5055565;28;20493;-83
2022/05/06 07:46:09;;;;;;;17.83;15.17;;;23.80;1.00;;;;;;5056201;28;20185;-82
2022/05/06 07:48:36;;;;;;;22.93;16.70;;;23.40;1.00;;;;;;5055433;28;20430;-81
2022/05/06 07:51:01;;;;;;;17.90;15.77;;;23.10;1.00;;;;;;5055811;28;20416;-82
2022/05/06 07:53:27;;;;;;;18.90;15.33;;;23.20;1.00;;;;;;5055801;28;20443;-82
2022/05/06 07:55:52;;;;;;;15.40;13.83;;;23.40;1.00;;;;;;5055841;28;20185;-81
2022/05/06 07:58:18;;;;;;;16.50;14.37;;;23.80;1.00;;;;;;5055776;28;20180;-81
2022/05/06 08:00:44;;;;;;;16.10;14.33;;;24.40;1.00;;;;;;5058489;28;20185;-81
2022/05/06 08:05:57;;;;;;;15.17;12.80;;;24.20;1.00;;;;;;5075222;28;20252;-80
2022/05/06 08:08:26;;;;;;;15.63;12.80;;;23.30;1.00;;;;;;5075031;28;20439;-80
2022/05/06 08:10:55;;;;;;;13.93;12.60;;;23.80;1.00;;;;;;5075376;28;20845;-80
2022/05/06 08:13:21;;;;;;;15.13;13.20;;;23.60;1.00;;;;;;5075445;28;20506;-83
2022/05/06 08:15:48;;;;;;;18.10;15.03;;;23.80;1.00;;;;;;5075358;28;20946;-80
2022/05/06 08:18:14;;;;;;;14.17;12.80;;;24.70;1.00;;;;;;5075573;28;20261;-81
2022/05/06 08:20:40;;;;;;;17.00;15.23;;;25.20;1.00;;;;;;5074953;28;20959;-80
2022/05/06 08:23:07;;;;;;;22.00;16.40;;;25.10;1.00;;;;;;5075219;28;20205;-82
2022/05/06 08:25:33;;;;;;;17.77;14.17;;;25.10;1.00;;;;;;5075270;28;20569;-81
2022/05/06 08:27:58;;;;;;;17.00;14.40;;;24.90;1.00;;;;;;5074943;28;20549;-82
2022/05/06 08:30:24;;;;;;;15.30;13.87;;;24.70;1.00;;;;;;5057026;28;20633;-81
2022/05/06 08:33:08;;;;;;;16.67;14.70;;;24.10;1.00;;;;;;5074770;28;20218;-83
2022/05/06 08:35:42;;;;;;;16.77;15.07;;;24.60;1.00;;;;;;5074204;28;20180;-83
2022/05/06 08:38:08;;;;;;;16.67;14.87;;;24.80;1.00;;;;;;5074565;28;20419;-82
2022/05/06 08:40:38;;;;;;;14.63;13.10;;;24.70;1.00;;;;;;5074810;28;20430;-82
2022/05/06 08:43:07;;;;;;;15.60;13.67;;;24.50;1.00;;;;;;5074421;28;20827;-81
2022/05/06 08:51:04;;;;;;;12.50;11.20;;;25.10;1.00;;;;;;5074653;28;20414;-82
2022/05/06 08:53:34;;;;;;;11.97;10.87;;;24.70;1.00;;;;;;5074559;28;20910;-82
2022/05/06 08:56:04;;;;;;;12.37;10.60;;;25.40;1.00;;;;;;5074618;28;20747;-82
2022/05/06 08:58:34;;;;;;;14.53;12.70;;;25.50;1.00;;;;;;5074351;28;20415;-81
2022/05/06 09:01:07;;;;;;;12.93;11.67;;;25.60;1.00;;;;;;5073294;28;20915;-81
2022/05/06 09:03:33;;;;;;;13.03;11.70;;;26.00;1.00;;;;;;5073649;28;20808;-81
2022/05/06 09:05:59;;;;;;;12.47;11.10;;;26.20;1.00;;;;;;5074299;28;20426;-80
2022/05/06 09:08:58;;;;;;;12.73;11.43;;;26.10;1.00;;;;;;5074022;28;20236;-81
2022/05/06 09:14:20;;;;;;;13.07;11.70;;;25.70;1.00;;;;;;5074486;28;20390;-80
2022/05/06 09:16:47;;;;;;;12.33;10.40;;;26.40;1.00;;;;;;5073907;28;20927;-80
2022/05/06 09:19:23;;;;;;;15.57;11.10;;;25.60;1.00;;;;;;5073492;28;20411;-81
2022/05/06 09:22:27;;;;;;;12.10;10.90;;;25.80;1.00;;;;;;5055419;28;20970;-82
2022/05/06 09:24:53;;;;;;;13.00;11.80;;;26.30;1.00;;;;;;4992636;28;20451;-81
2022/05/06 09:27:21;;;;;;;12.23;10.97;;;26.10;1.00;;;;;;5041459;28;20950;-80
2022/05/06 09:29:48;;;;;;;11.90;10.80;;;25.80;1.00;;;;;;5073553;28;20779;-80
2022/05/06 09:32:27;;;;;;;10.80;9.80;;;26.20;1.00;;;;;;5073543;28;21011;-80
2022/05/06 09:34:55;;;;;;;12.60;11.27;;;26.20;1.00;;;;;;5073181;28;20557;-79
2022/05/06 09:37:41;;;;;;;13.50;12.13;;;26.30;1.00;;;;;;5068410;28;20424;-80
2022/05/06 09:40:10;;;;;;;14.00;12.60;;;26.60;1.00;;;;;;5051455;28;20412;-80
2022/05/06 09:43:00;;;;;;;13.03;11.83;;;26.40;1.00;;;;;;5049800;28;20555;-80
2022/05/06 09:45:39;;;;;;;12.33;11.13;;;26.80;1.00;;;;;;5050981;28;20460;-80
2022/05/06 09:48:06;;;;;;;11.37;10.17;;;26.70;1.00;;;;;;5050958;28;21138;-80
2022/05/06 09:50:46;;;;;;;11.00;9.97;;;27.10;1.00;;;;;;5034089;28;20404;-79
2022/05/06 09:53:18;;;;;;;13.37;10.27;;;27.90;1.00;;;;;;5052072;28;20447;-80
2022/05/06 09:55:47;;;;;;;11.30;10.10;;;27.50;1.00;;;;;;5052168;28;20412;-79
2022/05/06 09:58:14;;;;;;;13.20;10.60;;;27.10;1.00;;;;;;5051938;28;20412;-80
2022/05/06 10:00:39;;;;;;;11.50;10.30;;;26.70;1.00;;;;;;5052009;28;20465;-79
2022/05/06 10:03:06;;;;;;;11.13;10.13;;;27.50;1.00;;;;;;5051926;28;20507;-80
2022/05/06 10:05:34;;;;;;;11.40;9.73;;;27.40;1.00;;;;;;5052007;28;20376;-80
2022/05/06 10:08:05;;;;;;;10.40;9.23;;;26.90;1.00;;;;;;5051871;28;20417;-79
2022/05/06 10:10:45;;;;;;;9.90;8.90;;;27.20;1.00;;;;;;5051924;28;20440;-79
2022/05/06 10:13:23;;;;;;;9.93;9.03;;;27.30;1.00;;;;;;5050991;28;20544;-80
2022/05/06 10:15:52;;;;;;;8.93;8.03;;;27.20;1.00;;;;;;5051951;28;20439;-80
2022/05/06 10:18:44;;;;;;;9.87;8.30;;;26.40;1.00;;;;;;5031579;28;20470;-80
2022/05/06 10:21:17;;;;;;;9.67;8.27;;;25.20;1.00;;;;;;5047797;28;20442;-80
2022/05/06 10:23:53;;;;;;;13.67;8.30;;;26.50;1.00;;;;;;5052290;28;20769;-80
2022/05/06 10:26:43;;;;;;;11.30;9.60;;;26.80;1.00;;;;;;5050589;28;20423;-81
2022/05/06 10:35:08;;;;;;;9.50;7.60;;;26.10;1.00;;;;;;5052633;28;20475;-81
2022/05/06 10:37:43;;;;;;;10.40;8.80;;;26.60;1.00;;;;;;5019158;28;20479;-82
2022/05/06 10:40:24;;;;;;;12.13;9.70;;;25.50;1.00;;;;;;5052951;28;20935;-82
2022/05/06 10:42:51;;;;;;;10.20;9.10;;;24.80;1.00;;;;;;5052990;28;20440;-82
2022/05/06 10:45:30;;;;;;;10.03;9.00;;;25.90;1.00;;;;;;5052769;28;20963;-81
2022/05/06 10:47:57;;;;;;;10.23;8.37;;;26.00;1.00;;;;;;5052843;28;20419;-82
2022/05/06 10:50:25;;;;;;;10.30;7.73;;;26.40;1.00;;;;;;5052764;28;20439;-81
2022/05/06 10:52:51;;;;;;;9.73;7.70;;;26.10;1.00;;;;;;5052857;28;20473;-81
2022/05/06 10:55:19;;;;;;;8.37;7.50;;;26.90;1.00;;;;;;5035001;28;20463;-81
2022/05/06 10:57:54;;;;;;;8.13;7.33;;;27.30;1.00;;;;;;5052672;28;20473;-81
2022/05/06 11:00:22;;;;;;;11.17;9.10;;;27.00;1.00;;;;;;5052746;28;20963;-81
2022/05/06 11:02:49;;;;;;;7.27;6.57;;;26.70;1.00;;;;;;5052753;28;20446;-82
2022/05/06 11:05:16;;;;;;;9.20;7.07;;;27.10;1.00;;;;;;5052171;28;20515;-81
2022/05/06 11:07:44;;;;;;;9.33;7.50;;;27.40;1.00;;;;;;5052501;28;20495;-81
2022/05/06 11:10:16;;;;;;;10.07;8.30;;;27.40;1.00;;;;;;5034585;28;20428;-81
2022/05/06 11:12:44;;;;;;;10.20;8.40;;;27.10;1.00;;;;;;5052366;28;20401;-81
2022/05/06 11:15:13;;;;;;;8.20;7.43;;;27.80;1.00;;;;;;5067905;28;20814;-81
2022/05/06 11:17:39;;;;;;;9.80;7.40;;;27.50;1.00;;;;;;5034490;28;20506;-81
2022/05/06 11:20:28;;;;;;;8.67;7.57;;;26.90;1.00;;;;;;5051962;28;21009;-81
2022/05/06 11:23:01;;;;;;;9.97;8.47;;;27.20;1.00;;;;;;5052457;28;20766;-81
2022/05/06 11:25:34;;;;;;;8.40;7.60;;;25.40;1.00;;;;;;5055645;28;20419;-80
2022/05/06 11:28:09;;;;;;;10.70;7.40;;;24.40;1.00;;;;;;5065831;28;20489;-81
2022/05/06 11:30:35;;;;;;;7.73;6.93;;;25.90;1.00;;;;;;5056214;28;20407;-81
2022/05/06 11:33:02;;;;;;;8.97;7.80;;;26.80;1.00;;;;;;5055807;28;20459;-82
2022/05/06 11:35:35;;;;;;;9.93;8.53;;;26.70;1.00;;;;;;5056115;28;20181;-81
2022/05/06 11:38:02;;;;;;;9.57;8.30;;;26.80;1.00;;;;;;5054984;28;20412;-81
2022/05/06 11:42:55;;;;;;;8.80;6.40;;;26.50;1.00;;;;;;5054831;28;20416;-81
2022/05/06 11:48:10;;;;;;;9.70;8.70;;;27.10;1.00;;;;;;5054492;28;20200;-81
2022/05/06 11:50:37;;;;;;;7.80;6.90;;;26.60;1.00;;;;;;5055668;28;20409;-79
2022/05/06 11:53:07;;;;;;;6.93;6.23;;;26.30;1.00;;;;;;5055515;28;20593;-78
2022/05/06 11:55:35;;;;;;;6.93;6.23;;;26.50;1.00;;;;;;5055477;28;20786;-79
2022/05/06 11:58:02;;;;;;;10.17;7.20;;;25.80;1.00;;;;;;5037481;28;20428;-81
2022/05/06 12:00:29;;;;;;;6.80;6.10;;;24.70;1.00;;;;;;5055399;28;20923;-81
2022/05/06 12:02:55;;;;;;;9.17;7.77;;;23.80;1.00;;;;;;5055078;28;20416;-81
2022/05/06 12:05:20;;;;;;;7.50;6.70;;;23.30;1.00;;;;;;5055365;28;20490;-81
2022/05/06 12:07:48;;;;;;;8.67;6.97;;;23.00;1.00;;;;;;5055268;28;20526;-81
2022/05/06 12:10:26;;;;;;;8.80;5.90;;;22.60;1.00;;;;;;5055353;28;20185;-81
2022/05/06 12:12:56;;;;;;;6.67;5.13;;;23.50;1.00;;;;;;5055260;28;20482;-81
2022/05/06 12:15:29;;;;;;;9.00;6.03;;;24.50;1.00;;;;;;5055458;28;20483;-81
2022/05/06 12:18:06;;;;;;;7.87;5.47;;;25.80;1.00;;;;;;5054922;28;20487;-82
2022/05/06 12:20:33;;;;;;;6.90;4.83;;;26.40;1.00;;;;;;5055352;28;20432;-81
2022/05/06 12:22:59;;;;;;;6.30;5.07;;;26.60;1.00;;;;;;5055253;28;20444;-81
2022/05/06 12:25:25;;;;;;;7.93;4.97;;;26.60;1.00;;;;;;5055138;28;20427;-81
2022/05/06 12:28:17;;;;;;;5.97;5.37;;;25.60;1.00;;;;;;5055112;28;20415;-81
2022/05/06 12:30:46;;;;;;;4.93;4.53;;;24.50;1.00;;;;;;5057178;28;20456;-81
2022/05/06 12:33:17;;;;;;;6.80;4.77;;;24.40;1.00;;;;;;5057821;28;20455;-79
2022/05/06 12:36:00;;;;;;;5.10;4.60;;;25.00;1.00;;;;;;5053974;28;20444;-80
2022/05/06 12:38:44;;;;;;;5.13;4.27;;;24.60;1.00;;;;;;5054281;28;20473;-79
2022/05/06 12:41:18;;;;;;;9.40;6.40;;;25.30;1.00;;;;;;5057837;28;20416;-80
2022/05/06 12:43:49;;;;;;;10.20;5.90;;;26.30;1.00;;;;;;5057427;28;20431;-79
2022/05/06 12:46:33;;;;;;;5.90;5.40;;;25.80;1.00;;;;;;5015599;28;20528;-80
2022/05/06 12:51:45;;;;;;;5.53;3.70;;;26.10;1.00;;;;;;5017098;28;20445;-80
2022/05/06 12:54:12;;;;;;;4.80;3.67;;;25.60;1.00;;;;;;5015022;28;20470;-80
2022/05/06 12:56:39;;;;;;;8.33;4.40;;;26.40;1.00;;;;;;5014789;28;20418;-80
2022/05/06 12:59:06;;;;;;;7.80;3.60;;;26.70;1.00;;;;;;5014567;28;20483;-80
2022/05/06 13:01:32;;;;;;;6.00;4.10;;;26.90;1.00;;;;;;5013519;28;20418;-80
2022/05/06 13:03:58;;;;;;;4.60;4.10;;;25.80;1.00;;;;;;5014228;28;20418;-80
2022/05/06 13:06:24;;;;;;;7.00;4.30;;;24.80;1.00;;;;;;5013385;28;20967;-80
2022/05/06 13:08:50;;;;;;;7.23;5.00;;;24.00;1.00;;;;;;5014580;28;20190;-80
2022/05/06 13:11:17;;;;;;;7.13;4.63;;;25.00;1.00;;;;;;5014527;28;20479;-80
2022/05/06 13:13:42;;;;;;;7.10;5.30;;;25.80;1.00;;;;;;5014441;28;20474;-80
2022/05/06 13:16:12;;;;;;;6.70;5.63;;;25.80;1.00;;;;;;5013052;28;20420;-80
2022/05/06 13:18:39;;;;;;;6.47;5.33;;;25.10;1.00;;;;;;5013883;28;20644;-80
2022/05/06 13:21:05;;;;;;;6.53;3.90;;;24.60;1.00;;;;;;5014334;28;20441;-80
2022/05/06 13:23:31;;;;;;;4.60;3.10;;;24.60;1.00;;;;;;5014250;28;20507;-80
2022/05/06 13:25:57;;;;;;;4.20;3.20;;;24.70;1.00;;;;;;5012968;28;20179;-79
2022/05/06 13:28:23;;;;;;;3.07;2.60;;;25.10;1.00;;;;;;5014309;28;20790;-80
2022/05/06 13:30:49;;;;;;;5.13;3.40;;;25.30;1.00;;;;;;5014169;28;20179;-79
2022/05/06 13:33:14;;;;;;;4.80;2.93;;;24.80;1.00;;;;;;5013749;28;20504;-80
2022/05/06 13:35:41;;;;;;;3.97;3.30;;;25.00;1.00;;;;;;5014203;28;20183;-79
2022/05/06 13:38:10;;;;;;;5.80;3.07;;;25.70;1.00;;;;;;5014008;28;20225;-80